Summerfield, Oklahoma
Current Conditions -  °F | °C
As of 7:55 AM on Monday 24 Nov 2014 (Local Time) from KRKR Reporting Station
Clear Clear  
Wind Chill: 38°   Ceiling: Unl
Heat Index: 38°   Visibility: 10mi
Dew Point: 34°   Wind: 3mph
Humidity: 83%   Direction: 190°S
Pressure: 29.91"   Gusts: NA
Location:  34.9236°N, 94.8628°W
Report Text: KRKR 241355Z AUTO 19003KT 10SM CLR 04/01 A2991 RMK AO2 T00360009
Loading
Personal Weather Stations






























Interactive Weather Map New forecast layout! Learn more

10-Day Weather Forecast

Advertisements
Track Severe Weather on mobile